createdAt,value
2022-11-27T00:01:43.416Z,4.27
2022-11-27T00:04:14.130Z,4.17
2022-11-27T00:06:44.972Z,4.27
2022-11-27T00:09:17.624Z,3.80
2022-11-27T00:11:45.920Z,4.27
2022-11-27T00:14:16.198Z,4.80
2022-11-27T00:16:46.612Z,3.47
2022-11-27T00:19:14.758Z,3.93
2022-11-27T00:21:42.893Z,3.70
2022-11-27T00:24:13.021Z,3.43
2022-11-27T00:26:42.566Z,3.97
2022-11-27T00:29:12.928Z,3.83
2022-11-27T00:31:43.236Z,3.60
2022-11-27T00:34:12.868Z,3.57
2022-11-27T00:36:47.810Z,4.57
2022-11-27T00:39:16.477Z,3.80
2022-11-27T00:41:46.305Z,4.00
2022-11-27T00:44:14.665Z,4.87
2022-11-27T00:46:42.998Z,4.77
2022-11-27T00:49:14.839Z,4.20
2022-11-27T00:51:43.516Z,4.33
2022-11-27T00:54:11.839Z,4.20
2022-11-27T00:56:42.228Z,4.83
2022-11-27T00:59:14.072Z,3.57
2022-11-27T01:01:44.857Z,3.90
2022-11-27T01:04:14.954Z,4.33
2022-11-27T01:06:44.516Z,3.37
2022-11-27T01:09:13.837Z,3.90
2022-11-27T01:11:42.890Z,3.70
2022-11-27T01:14:16.038Z,3.70
2022-11-27T01:16:44.200Z,3.43
2022-11-27T01:19:13.702Z,3.80
2022-11-27T01:21:42.596Z,3.77
2022-11-27T01:24:15.264Z,3.20
2022-11-27T01:26:43.827Z,4.07
2022-11-27T01:29:12.582Z,3.60
2022-11-27T01:31:44.241Z,3.73
2022-11-27T01:34:18.826Z,3.13
2022-11-27T01:36:47.003Z,3.60
2022-11-27T01:39:17.926Z,3.60
2022-11-27T01:41:47.004Z,3.77
2022-11-27T01:45:00.454Z,3.60
2022-11-27T01:47:35.056Z,3.57
2022-11-27T01:50:12.865Z,2.93
2022-11-27T01:52:45.346Z,3.43
2022-11-27T01:55:20.361Z,3.37
2022-11-27T01:57:51.074Z,3.27
2022-11-27T02:00:20.769Z,3.70
2022-11-27T02:02:50.911Z,4.03
2022-11-27T02:05:21.787Z,3.60
2022-11-27T02:07:50.943Z,4.57
2022-11-27T02:10:22.024Z,3.17
2022-11-27T02:12:58.229Z,4.07
2022-11-27T02:15:36.528Z,3.47
2022-11-27T02:18:14.033Z,3.80
2022-11-27T02:20:49.314Z,3.77
2022-11-27T02:23:48.759Z,3.60
2022-11-27T02:26:53.125Z,3.70
2022-11-27T02:29:24.778Z,3.73
2022-11-27T02:31:59.161Z,3.70
2022-11-27T02:34:32.112Z,4.03
2022-11-27T02:37:06.671Z,4.03
2022-11-27T02:39:41.989Z,3.60
2022-11-27T02:42:16.672Z,4.00
2022-11-27T02:44:48.750Z,3.60
2022-11-27T02:47:16.879Z,3.53
2022-11-27T02:49:49.869Z,3.63
2022-11-27T02:52:21.676Z,3.53
2022-11-27T02:54:52.863Z,3.87
2022-11-27T02:57:24.531Z,3.53
2022-11-27T02:59:56.723Z,4.10
2022-11-27T03:02:30.654Z,3.70
2022-11-27T03:05:02.332Z,3.70
2022-11-27T03:07:38.457Z,3.50
2022-11-27T03:10:11.008Z,3.50
2022-11-27T03:12:41.705Z,3.63
2022-11-27T03:15:12.447Z,3.30
2022-11-27T03:17:51.824Z,3.37
2022-11-27T03:20:24.302Z,3.70
2022-11-27T03:22:54.770Z,3.40
2022-11-27T03:25:23.456Z,4.00
2022-11-27T03:27:57.870Z,3.83
2022-11-27T03:30:27.363Z,3.30
2022-11-27T03:32:58.345Z,4.07
2022-11-27T03:35:29.851Z,4.77
2022-11-27T03:37:58.560Z,3.90
2022-11-27T03:40:34.856Z,4.20
2022-11-27T03:43:07.696Z,4.23
2022-11-27T03:45:44.566Z,3.90
2022-11-27T03:48:21.126Z,4.20
2022-11-27T03:50:58.692Z,4.30
2022-11-27T03:53:45.555Z,4.80
2022-11-27T03:56:21.630Z,4.10
2022-11-27T03:58:56.428Z,4.83
2022-11-27T04:01:28.334Z,4.57
2022-11-27T04:03:56.541Z,4.40
2022-11-27T04:06:24.690Z,4.70
2022-11-27T04:08:53.385Z,5.37
2022-11-27T04:11:21.501Z,5.87
2022-11-27T04:13:52.194Z,4.50
2022-11-27T04:16:20.495Z,4.97
2022-11-27T04:18:49.958Z,5.00
2022-11-27T04:21:20.435Z,5.13
2022-11-27T04:23:48.552Z,5.00
2022-11-27T04:26:17.299Z,4.80
2022-11-27T04:28:47.641Z,4.33
2022-11-27T04:31:15.794Z,4.30
2022-11-27T04:33:43.896Z,5.47
2022-11-27T04:36:13.408Z,5.13
2022-11-27T04:38:41.693Z,5.63
2022-11-27T04:41:09.809Z,5.27
2022-11-27T04:43:37.867Z,4.10
2022-11-27T04:46:08.293Z,5.50
2022-11-27T04:48:38.638Z,4.63
2022-11-27T04:51:07.105Z,5.47
2022-11-27T04:53:37.541Z,5.07
2022-11-27T04:56:08.186Z,5.10
2022-11-27T04:58:36.352Z,5.50
2022-11-27T05:01:04.541Z,5.70
2022-11-27T05:03:32.701Z,5.30
2022-11-27T05:06:00.834Z,5.57
2022-11-27T05:08:33.074Z,5.47
2022-11-27T05:11:04.854Z,5.10
2022-11-27T05:13:33.369Z,5.30
2022-11-27T05:16:04.321Z,5.70
2022-11-27T05:18:32.537Z,5.63
2022-11-27T05:21:01.579Z,5.73
2022-11-27T05:23:30.065Z,5.07
2022-11-27T05:26:01.141Z,5.47
2022-11-27T05:28:33.064Z,5.53
2022-11-27T05:31:01.257Z,5.43
2022-11-27T05:33:32.312Z,4.87
2022-11-27T05:36:02.735Z,5.43
2022-11-27T05:38:30.872Z,5.17
2022-11-27T05:40:58.967Z,5.03
2022-11-27T05:43:27.068Z,4.83
2022-11-27T05:45:56.509Z,4.70
2022-11-27T05:48:27.073Z,4.60
2022-11-27T05:50:55.167Z,5.10
2022-11-27T05:53:23.270Z,4.23
2022-11-27T05:55:51.356Z,4.90
2022-11-27T05:58:19.826Z,4.43
2022-11-27T06:00:50.329Z,5.90
2022-11-27T06:03:20.116Z,5.63
2022-11-27T06:05:48.279Z,4.23
2022-11-27T06:08:16.417Z,4.50
2022-11-27T06:10:47.456Z,4.17
2022-11-27T06:13:15.864Z,4.83
2022-11-27T06:15:44.163Z,4.17
2022-11-27T06:18:13.058Z,4.70
2022-11-27T06:20:45.281Z,4.60
2022-11-27T06:23:14.117Z,4.40
2022-11-27T06:25:44.422Z,5.17
2022-11-27T06:28:14.581Z,4.70
2022-11-27T06:30:42.647Z,4.30
2022-11-27T06:33:10.718Z,4.83
2022-11-27T06:35:38.826Z,4.70
2022-11-27T06:38:10.315Z,4.03
2022-11-27T06:40:38.657Z,4.50
2022-11-27T06:43:06.785Z,4.37
2022-11-27T06:45:34.989Z,3.67
2022-11-27T06:48:03.119Z,5.07
2022-11-27T06:50:31.201Z,4.87
2022-11-27T06:52:59.349Z,4.50
2022-11-27T06:55:29.387Z,4.20
2022-11-27T06:57:57.517Z,4.53
2022-11-27T07:00:25.588Z,4.70
2022-11-27T07:02:56.312Z,4.33
2022-11-27T07:05:27.002Z,4.97
2022-11-27T07:07:57.792Z,5.03
2022-11-27T07:10:26.055Z,5.10
2022-11-27T07:12:55.544Z,6.90
2022-11-27T07:15:23.793Z,4.70
2022-11-27T07:17:54.329Z,4.40
2022-11-27T07:20:22.470Z,4.93
2022-11-27T07:22:50.597Z,4.70
2022-11-27T07:25:18.902Z,5.00
2022-11-27T07:27:47.212Z,4.73
2022-11-27T07:30:17.377Z,5.20
2022-11-27T07:32:45.653Z,5.13
2022-11-27T07:35:13.809Z,4.90
2022-11-27T07:37:41.882Z,5.43
2022-11-27T07:40:10.502Z,5.37
2022-11-27T07:42:39.320Z,4.50
2022-11-27T07:45:08.989Z,5.50
2022-11-27T07:47:38.641Z,5.47
2022-11-27T07:50:08.836Z,5.07
2022-11-27T07:52:41.419Z,6.83
2022-11-27T07:55:11.336Z,5.90
2022-11-27T07:57:39.462Z,4.97
2022-11-27T08:00:09.015Z,4.93
2022-11-27T08:02:38.658Z,4.97
2022-11-27T08:05:12.827Z,5.20
2022-11-27T08:07:41.823Z,5.30
2022-11-27T08:10:10.261Z,6.23
2022-11-27T08:12:38.385Z,4.87
2022-11-27T08:15:10.136Z,6.10
2022-11-27T08:17:40.536Z,5.03
2022-11-27T08:20:09.362Z,5.77
2022-11-27T08:22:37.447Z,6.23
2022-11-27T08:25:06.213Z,5.90
2022-11-27T08:27:34.605Z,5.47
2022-11-27T08:30:02.671Z,6.30
2022-11-27T08:32:32.772Z,6.00
2022-11-27T08:35:02.858Z,6.50
2022-11-27T08:37:34.674Z,6.07
2022-11-27T08:40:02.800Z,4.80
2022-11-27T08:42:30.893Z,5.47
2022-11-27T08:44:59.305Z,5.47
2022-11-27T08:47:29.525Z,5.73
2022-11-27T08:49:57.659Z,5.93
2022-11-27T08:52:27.255Z,5.83
2022-11-27T08:54:58.441Z,6.20
2022-11-27T08:57:28.898Z,6.13
2022-11-27T08:59:57.008Z,5.70
2022-11-27T09:02:25.207Z,5.70
2022-11-27T09:04:53.397Z,5.87
2022-11-27T09:07:21.621Z,6.50
2022-11-27T09:09:51.288Z,5.77
2022-11-27T09:12:19.573Z,5.67
2022-11-27T09:14:49.929Z,5.77
2022-11-27T09:17:20.028Z,5.53
2022-11-27T09:19:48.414Z,5.60
2022-11-27T09:22:16.579Z,5.63
2022-11-27T09:24:44.633Z,6.20
2022-11-27T09:27:14.130Z,6.03
2022-11-27T09:29:42.201Z,5.40
2022-11-27T09:32:10.362Z,6.27
2022-11-27T09:34:39.113Z,5.27
2022-11-27T09:37:07.928Z,5.70
2022-11-27T09:39:36.230Z,6.37
2022-11-27T09:42:09.678Z,5.97
2022-11-27T09:44:45.300Z,5.47
2022-11-27T09:47:20.859Z,5.83
2022-11-27T09:49:53.012Z,6.60
2022-11-27T09:52:26.521Z,5.90
2022-11-27T09:55:02.712Z,5.63
2022-11-27T09:57:35.562Z,7.40
2022-11-27T10:00:14.327Z,6.10
2022-11-27T10:02:45.302Z,6.40
2022-11-27T10:05:18.997Z,6.60
2022-11-27T10:08:07.143Z,6.23
2022-11-27T10:10:42.148Z,5.97
2022-11-27T10:13:23.948Z,6.20
2022-11-27T10:15:57.881Z,5.63
2022-11-27T10:18:34.595Z,5.33
2022-11-27T10:21:08.595Z,5.77
2022-11-27T10:23:47.103Z,5.90
2022-11-27T10:26:19.958Z,6.50
2022-11-27T10:28:56.652Z,6.43
2022-11-27T10:31:36.508Z,7.00
2022-11-27T10:34:21.921Z,6.30
2022-11-27T10:36:55.012Z,6.27
2022-11-27T10:39:30.735Z,6.03
2022-11-27T10:42:07.460Z,6.67
2022-11-27T10:44:39.912Z,6.47
2022-11-27T10:47:13.274Z,5.90
2022-11-27T10:49:43.110Z,6.57
2022-11-27T10:52:16.170Z,7.27
2022-11-27T10:54:51.800Z,6.63
2022-11-27T10:57:33.387Z,7.33
2022-11-27T11:00:09.263Z,7.63
2022-11-27T11:02:40.437Z,7.77
2022-11-27T11:05:32.811Z,6.53
2022-11-27T11:08:04.953Z,7.57
2022-11-27T11:10:36.245Z,7.20
2022-11-27T11:13:19.119Z,8.10
2022-11-27T11:15:58.630Z,7.33
2022-11-27T11:18:29.872Z,7.37
2022-11-27T11:21:00.080Z,8.03
2022-11-27T11:23:31.811Z,7.63
2022-11-27T11:26:06.491Z,6.97
2022-11-27T11:28:49.690Z,6.93
2022-11-27T11:31:23.036Z,7.40
2022-11-27T11:33:57.113Z,7.80
2022-11-27T11:36:25.495Z,6.63
2022-11-27T11:38:54.236Z,6.47
2022-11-27T11:41:24.145Z,7.03
2022-11-27T11:43:57.575Z,6.10
2022-11-27T11:46:28.666Z,7.00
2022-11-27T11:49:01.064Z,6.80
2022-11-27T11:51:55.792Z,6.47
2022-11-27T11:54:40.889Z,6.50
2022-11-27T11:57:26.710Z,6.50
2022-11-27T12:00:03.195Z,6.13
2022-11-27T12:02:47.043Z,6.83
2022-11-27T12:05:28.086Z,6.30
2022-11-27T12:08:16.535Z,6.20
2022-11-27T12:10:54.536Z,6.30
2022-11-27T12:13:39.173Z,7.67
2022-11-27T12:16:19.589Z,6.43
2022-11-27T12:19:05.783Z,6.60
2022-11-27T12:21:46.916Z,6.07
2022-11-27T12:24:31.639Z,5.47
2022-11-27T12:27:14.261Z,5.80
2022-11-27T12:30:00.788Z,6.30
2022-11-27T12:32:39.010Z,5.97
2022-11-27T12:35:26.673Z,6.03
2022-11-27T12:38:16.748Z,5.93
2022-11-27T12:41:05.129Z,5.90
2022-11-27T12:43:40.874Z,6.00
2022-11-27T12:46:16.306Z,6.83
2022-11-27T12:48:51.265Z,6.77
2022-11-27T12:51:25.902Z,6.00
2022-11-27T12:54:01.096Z,7.23
2022-11-27T12:56:34.074Z,7.13
2022-11-27T12:59:11.135Z,6.47
2022-11-27T13:01:44.619Z,6.90
2022-11-27T13:04:20.698Z,6.83
2022-11-27T13:06:59.597Z,6.70
2022-11-27T13:09:38.414Z,6.17
2022-11-27T13:12:10.185Z,5.87
2022-11-27T13:14:46.514Z,6.00
2022-11-27T13:17:18.414Z,6.43
2022-11-27T13:19:49.069Z,6.20
2022-11-27T13:22:27.456Z,6.67
2022-11-27T13:25:02.850Z,5.93
2022-11-27T13:27:36.941Z,5.90
2022-11-27T13:30:07.347Z,6.20
2022-11-27T13:32:41.136Z,5.67
2022-11-27T13:35:21.535Z,6.33
2022-11-27T13:37:56.201Z,6.43
2022-11-27T13:40:30.927Z,6.17
2022-11-27T13:43:04.752Z,7.07
2022-11-27T13:45:36.386Z,6.40
2022-11-27T13:48:34.003Z,5.63
2022-11-27T13:51:07.119Z,6.07
2022-11-27T13:53:40.275Z,6.73
2022-11-27T13:56:10.773Z,5.23
2022-11-27T13:58:41.002Z,6.50
2022-11-27T14:01:18.782Z,6.90
2022-11-27T14:03:47.530Z,7.20
2022-11-27T14:06:23.561Z,7.00
2022-11-27T14:08:58.472Z,6.27
2022-11-27T14:11:40.149Z,6.57
2022-11-27T14:14:17.481Z,6.87
2022-11-27T14:17:25.120Z,6.43
2022-11-27T14:20:06.794Z,6.77
2022-11-27T14:23:10.011Z,6.50
2022-11-27T14:25:36.310Z,7.13
2022-11-27T14:28:15.536Z,6.73
2022-11-27T14:30:47.826Z,7.57
2022-11-27T14:33:21.208Z,7.60
2022-11-27T14:35:53.720Z,6.97
2022-11-27T14:38:22.995Z,7.33
2022-11-27T14:40:53.578Z,7.50
2022-11-27T14:43:26.044Z,8.53
2022-11-27T14:45:55.952Z,7.70
2022-11-27T14:48:26.318Z,8.70
2022-11-27T14:50:58.068Z,7.23
2022-11-27T14:53:29.749Z,7.47
2022-11-27T14:55:59.801Z,7.00
2022-11-27T14:58:32.215Z,7.00
2022-11-27T15:01:02.770Z,7.83
2022-11-27T15:03:31.099Z,6.27
2022-11-27T15:06:03.949Z,7.27
2022-11-27T15:08:35.725Z,6.90
2022-11-27T15:11:05.744Z,6.73
2022-11-27T15:13:37.662Z,6.90
2022-11-27T15:16:16.192Z,7.17
2022-11-27T15:18:49.388Z,7.07
2022-11-27T15:21:21.388Z,7.00
2022-11-27T15:23:53.033Z,7.63
2022-11-27T15:26:33.579Z,8.30
2022-11-27T15:29:24.725Z,7.27
2022-11-27T15:31:53.740Z,7.20
2022-11-27T15:34:24.946Z,7.83
2022-11-27T15:36:58.938Z,7.90
2022-11-27T15:39:31.796Z,6.93
2022-11-27T15:42:01.423Z,7.20
2022-11-27T15:44:34.160Z,8.67
2022-11-27T15:47:04.397Z,8.27
2022-11-27T15:49:33.055Z,8.30
2022-11-27T15:52:01.290Z,9.40
2022-11-27T15:54:29.614Z,10.50
2022-11-27T15:56:57.733Z,10.10
2022-11-27T15:59:27.287Z,10.00
2022-11-27T16:01:57.885Z,9.73
2022-11-27T16:04:28.783Z,9.60
2022-11-27T16:06:57.052Z,9.97
2022-11-27T16:09:25.561Z,13.63
2022-11-27T16:11:56.278Z,14.50
2022-11-27T16:14:26.729Z,15.83
2022-11-27T16:16:56.323Z,15.63
2022-11-27T16:19:27.055Z,14.60
2022-11-27T16:21:57.845Z,11.93
2022-11-27T16:24:28.109Z,10.53
2022-11-27T16:26:56.232Z,9.97
2022-11-27T16:29:26.785Z,8.70
2022-11-27T16:31:57.042Z,7.73
2022-11-27T16:34:29.153Z,8.10
2022-11-27T16:36:57.320Z,8.07
2022-11-27T16:39:25.477Z,8.80
2022-11-27T16:41:56.061Z,7.87
2022-11-27T16:44:26.495Z,7.50
2022-11-27T16:46:58.074Z,7.70
2022-11-27T16:49:26.259Z,8.33
2022-11-27T16:51:54.529Z,8.47
2022-11-27T16:54:22.907Z,8.10
2022-11-27T16:56:54.298Z,6.70
2022-11-27T16:59:24.824Z,6.80
2022-11-27T17:01:55.468Z,6.20
2022-11-27T17:04:24.911Z,6.67
2022-11-27T17:06:53.017Z,6.87
2022-11-27T17:09:24.746Z,6.63
2022-11-27T17:11:55.500Z,6.23
2022-11-27T17:14:26.897Z,6.17
2022-11-27T17:16:55.259Z,6.57
2022-11-27T17:19:27.125Z,6.53
2022-11-27T17:21:58.007Z,5.37
2022-11-27T17:24:28.953Z,5.20
2022-11-27T17:26:57.317Z,5.40
2022-11-27T17:29:33.804Z,5.23
2022-11-27T17:32:04.156Z,5.53
2022-11-27T17:34:35.591Z,5.43
2022-11-27T17:37:04.444Z,5.03
2022-11-27T17:39:33.054Z,4.90
2022-11-27T17:42:01.197Z,6.50
2022-11-27T17:44:31.855Z,5.97
2022-11-27T17:47:00.104Z,5.63
2022-11-27T17:49:30.319Z,5.30
2022-11-27T17:52:05.962Z,4.97
2022-11-27T17:54:37.809Z,5.23
2022-11-27T17:57:06.662Z,5.37
2022-11-27T17:59:35.435Z,6.27
2022-11-27T18:02:03.709Z,5.33
2022-11-27T18:04:32.363Z,5.90
2022-11-27T18:07:01.973Z,5.23
2022-11-27T18:09:30.738Z,4.83
2022-11-27T18:12:01.362Z,5.90
2022-11-27T18:14:32.717Z,5.27
2022-11-27T18:17:07.066Z,5.67
2022-11-27T18:19:35.239Z,5.13
2022-11-27T18:22:04.806Z,4.90
2022-11-27T18:24:35.984Z,5.03
2022-11-27T18:27:08.746Z,4.43
2022-11-27T18:29:39.180Z,3.93
2022-11-27T18:32:11.035Z,5.00
2022-11-27T18:34:42.328Z,4.70
2022-11-27T18:37:12.696Z,4.87
2022-11-27T18:39:44.451Z,4.70
2022-11-27T18:42:13.225Z,3.80
2022-11-27T18:44:45.108Z,4.30
2022-11-27T18:47:14.440Z,4.80
2022-11-27T18:49:45.654Z,4.90
2022-11-27T18:52:15.602Z,5.10
2022-11-27T18:54:44.252Z,5.20
2022-11-27T18:57:13.217Z,4.70
2022-11-27T18:59:43.799Z,3.90
2022-11-27T19:02:13.322Z,4.70
2022-11-27T19:04:43.154Z,4.87
2022-11-27T19:07:11.620Z,4.87
2022-11-27T19:09:43.878Z,4.40
2022-11-27T19:12:12.809Z,4.60
2022-11-27T19:14:43.763Z,4.47
2022-11-27T19:17:14.345Z,3.87
2022-11-27T19:19:57.724Z,4.53
2022-11-27T19:22:28.336Z,4.47
2022-11-27T19:24:59.462Z,3.90
2022-11-27T19:27:27.679Z,4.10
2022-11-27T19:29:55.833Z,3.63
2022-11-27T19:32:24.220Z,3.53
2022-11-27T19:34:52.668Z,4.07
2022-11-27T19:37:33.417Z,3.87
2022-11-27T19:40:06.434Z,4.20
2022-11-27T19:42:34.608Z,3.80
2022-11-27T19:45:02.789Z,3.87
2022-11-27T19:47:33.282Z,3.40
2022-11-27T19:50:01.505Z,3.57
2022-11-27T19:52:32.419Z,2.90
2022-11-27T19:55:00.598Z,3.90
2022-11-27T19:57:30.870Z,3.80
2022-11-27T19:59:59.897Z,3.40
2022-11-27T20:02:29.828Z,3.23
2022-11-27T20:04:58.249Z,3.87
2022-11-27T20:07:26.526Z,3.87
2022-11-27T20:09:55.253Z,4.03
2022-11-27T20:12:23.349Z,3.13
2022-11-27T20:14:53.035Z,3.20
2022-11-27T20:17:21.298Z,2.70
2022-11-27T20:19:49.821Z,3.30
2022-11-27T20:22:19.238Z,2.90
2022-11-27T20:25:11.108Z,3.20
2022-11-27T20:27:38.859Z,3.00
2022-11-27T20:30:10.211Z,3.50
2022-11-27T20:32:38.473Z,3.30
2022-11-27T20:35:09.649Z,2.83
2022-11-27T20:37:38.080Z,3.43
2022-11-27T20:40:07.621Z,2.97
2022-11-27T20:42:36.161Z,3.33
2022-11-27T20:45:09.253Z,3.20
2022-11-27T20:47:37.640Z,3.40
2022-11-27T20:50:06.992Z,3.03
2022-11-27T20:52:35.253Z,3.97
2022-11-27T20:55:03.476Z,3.80
2022-11-27T20:57:31.711Z,3.50
2022-11-27T20:59:59.917Z,3.37
2022-11-27T21:02:29.815Z,4.00
2022-11-27T21:04:59.049Z,3.63
2022-11-27T21:07:27.248Z,3.33
2022-11-27T21:09:55.975Z,4.00
2022-11-27T21:12:27.234Z,4.30
2022-11-27T21:14:55.693Z,3.73
2022-11-27T21:17:26.549Z,3.90
2022-11-27T21:19:56.312Z,3.67
2022-11-27T21:22:24.481Z,2.97
2022-11-27T21:24:52.718Z,3.60
2022-11-27T21:27:21.530Z,3.67
2022-11-27T21:29:49.816Z,3.37
2022-11-27T21:32:22.646Z,5.27
2022-11-27T21:34:51.245Z,4.40
2022-11-27T21:37:20.932Z,6.30
2022-11-27T21:39:49.117Z,4.20
2022-11-27T21:42:20.421Z,3.90
2022-11-27T21:44:48.957Z,3.10
2022-11-27T21:47:17.635Z,3.47
2022-11-27T21:49:51.055Z,3.33
2022-11-27T21:52:21.158Z,2.93
2022-11-27T21:54:50.832Z,3.17
2022-11-27T21:57:20.779Z,3.27
2022-11-27T21:59:48.947Z,3.63
2022-11-27T22:02:17.143Z,3.03
2022-11-27T22:04:45.424Z,3.00
2022-11-27T22:07:13.564Z,3.03
2022-11-27T22:09:43.146Z,3.20
2022-11-27T22:12:11.263Z,5.07
2022-11-27T22:14:41.962Z,3.73
2022-11-27T22:17:10.436Z,3.37
2022-11-27T22:19:42.396Z,3.10
2022-11-27T22:22:10.608Z,3.77
2022-11-27T22:24:43.610Z,3.57
2022-11-27T22:27:12.038Z,3.37
2022-11-27T22:29:40.221Z,3.60
2022-11-27T22:32:09.032Z,3.00
2022-11-27T22:34:37.456Z,3.30
2022-11-27T22:37:06.005Z,3.60
2022-11-27T22:39:36.606Z,3.33
2022-11-27T22:42:06.323Z,3.33
2022-11-27T22:44:34.548Z,2.73
2022-11-27T22:47:05.275Z,3.47
2022-11-27T22:49:33.673Z,3.20
2022-11-27T22:52:01.923Z,3.47
2022-11-27T22:54:30.066Z,3.63
2022-11-27T22:56:58.988Z,3.10
2022-11-27T22:59:33.139Z,3.30
2022-11-27T23:02:02.505Z,3.80
2022-11-27T23:04:30.769Z,3.83
2022-11-27T23:07:01.348Z,3.60
2022-11-27T23:09:32.336Z,3.90
2022-11-27T23:12:03.383Z,3.33
2022-11-27T23:14:33.072Z,3.50
2022-11-27T23:17:01.206Z,3.90
2022-11-27T23:19:29.334Z,3.50
2022-11-27T23:21:57.489Z,4.20
2022-11-27T23:24:28.128Z,4.30
2022-11-27T23:26:56.260Z,3.83
2022-11-27T23:29:24.383Z,3.97
2022-11-27T23:31:55.891Z,4.00
2022-11-27T23:34:27.066Z,4.20
2022-11-27T23:36:57.519Z,4.23
2022-11-27T23:39:25.635Z,4.33
2022-11-27T23:41:53.767Z,3.83
2022-11-27T23:44:21.989Z,3.97
2022-11-27T23:46:50.480Z,4.00
2022-11-27T23:49:20.104Z,4.20
2022-11-27T23:51:48.661Z,4.33
2022-11-27T23:54:16.868Z,4.50
2022-11-27T23:56:47.338Z,4.00
2022-11-27T23:59:17.975Z,4.23
